createdAt,value
2023-05-02T00:05:58.295Z,12.51
2023-05-02T00:15:59.569Z,12.64
2023-05-02T00:26:00.217Z,12.27
2023-05-02T00:36:01.033Z,12.33
2023-05-02T00:46:02.246Z,12.50
2023-05-02T00:56:03.167Z,12.48
2023-05-02T01:06:03.900Z,12.49
2023-05-02T01:16:04.757Z,12.49
2023-05-02T01:26:05.625Z,12.38
2023-05-02T01:36:06.489Z,12.15
2023-05-02T01:46:07.387Z,12.29
2023-05-02T01:56:08.308Z,12.09
2023-05-02T02:06:09.264Z,12.26
2023-05-02T02:16:10.229Z,11.96
2023-05-02T02:26:11.040Z,11.90
2023-05-02T02:36:11.928Z,11.92
2023-05-02T02:46:12.890Z,11.79
2023-05-02T02:56:13.747Z,11.69
2023-05-02T03:06:14.688Z,11.68
2023-05-02T03:16:15.642Z,11.46
2023-05-02T03:26:16.482Z,11.30
2023-05-02T03:36:17.402Z,11.40
2023-05-02T03:56:19.010Z,10.79
2023-05-02T04:06:19.833Z,11.20
2023-05-02T04:16:20.612Z,11.20
2023-05-02T04:26:21.399Z,11.16
2023-05-02T04:36:22.269Z,10.94
2023-05-02T04:46:23.316Z,11.01
2023-05-02T04:56:23.843Z,11.33
2023-05-02T05:06:24.951Z,11.40
2023-05-02T05:16:25.531Z,12.02
2023-05-02T05:26:26.418Z,12.81
2023-05-02T05:36:27.500Z,13.97
2023-05-02T05:46:28.408Z,14.78
2023-05-02T05:56:29.590Z,15.18
2023-05-02T06:06:30.816Z,15.55
2023-05-02T06:16:32.361Z,16.15
2023-05-02T06:26:33.206Z,16.23
2023-05-02T06:36:34.707Z,16.05
2023-05-02T06:46:35.918Z,16.46
2023-05-02T06:56:37.364Z,17.90
2023-05-02T07:06:38.917Z,19.79
2023-05-02T07:16:40.735Z,20.90
2023-05-02T07:26:42.829Z,19.91
2023-05-02T07:36:44.930Z,18.96
2023-05-02T07:46:46.536Z,21.20
2023-05-02T07:56:48.353Z,21.07
2023-05-02T08:06:50.467Z,20.69
2023-05-02T08:16:52.199Z,20.96
2023-05-02T08:26:54.023Z,21.39
2023-05-02T08:36:58.222Z,20.87
2023-05-02T08:56:59.078Z,21.16
2023-05-02T09:07:00.707Z,20.51
2023-05-02T09:17:02.502Z,21.69
2023-05-02T09:27:03.973Z,21.63
2023-05-02T09:37:05.868Z,21.30
2023-05-02T09:47:07.355Z,21.94
2023-05-02T10:07:11.055Z,21.83
2023-05-02T10:17:12.550Z,22.21
2023-05-02T10:27:14.271Z,21.94
2023-05-02T10:37:16.088Z,21.69
2023-05-02T10:47:17.998Z,21.45
2023-05-02T10:57:19.388Z,21.32
2023-05-02T11:07:21.086Z,21.58
2023-05-02T11:17:24.144Z,21.59
2023-05-02T11:27:24.586Z,21.94
2023-05-02T11:37:26.315Z,21.95
2023-05-02T11:47:28.080Z,22.00
2023-05-02T11:57:29.774Z,22.12
2023-05-02T12:07:31.779Z,22.50
2023-05-02T12:17:33.374Z,22.51
2023-05-02T12:27:35.123Z,22.33
2023-05-02T12:37:36.842Z,22.59
2023-05-02T12:47:38.658Z,22.74
2023-05-02T12:57:40.641Z,22.59
2023-05-02T13:07:42.134Z,22.60
2023-05-02T13:17:44.214Z,22.79
2023-05-02T13:27:45.659Z,22.73
2023-05-02T13:37:47.440Z,22.77
2023-05-02T13:47:49.289Z,22.53
2023-05-02T13:57:51.021Z,22.70
2023-05-02T14:07:52.782Z,22.67
2023-05-02T14:17:54.522Z,22.30
2023-05-02T14:27:56.104Z,21.15
2023-05-02T14:37:58.070Z,21.06
2023-05-02T14:47:59.448Z,21.12
2023-05-02T14:58:01.443Z,21.36
2023-05-02T15:08:02.755Z,21.56
2023-05-02T15:18:04.614Z,21.79
2023-05-02T15:38:07.838Z,21.98
2023-05-02T15:58:11.355Z,21.95
2023-05-02T16:08:13.184Z,21.99
2023-05-02T16:18:14.759Z,21.96
2023-05-02T16:28:16.469Z,21.92
2023-05-02T16:38:18.297Z,21.81
2023-05-02T16:58:21.629Z,21.70
2023-05-02T17:08:23.334Z,21.57
2023-05-02T17:18:25.067Z,21.40
2023-05-02T17:28:27.062Z,21.28
2023-05-02T17:38:28.467Z,21.00
2023-05-02T17:48:30.146Z,20.82
2023-05-02T17:58:31.938Z,20.46
2023-05-02T18:08:33.441Z,20.25
2023-05-02T18:18:35.052Z,20.12
2023-05-02T18:28:36.788Z,19.54
2023-05-02T18:38:38.198Z,19.55
2023-05-02T18:48:39.632Z,19.42
2023-05-02T18:58:41.309Z,19.24
2023-05-02T19:08:43.298Z,19.00
2023-05-02T19:18:44.337Z,18.88
2023-05-02T19:28:45.857Z,18.64
2023-05-02T19:38:47.328Z,18.53
2023-05-02T19:48:48.688Z,18.28
2023-05-02T19:58:50.311Z,17.76
2023-05-02T20:08:51.515Z,17.59
2023-05-02T20:18:52.686Z,17.17
2023-05-02T20:28:54.134Z,17.52
2023-05-02T20:38:55.139Z,17.42
2023-05-02T20:48:56.430Z,17.00
2023-05-02T20:58:57.587Z,16.52
2023-05-02T21:08:58.978Z,17.04
2023-05-02T21:19:00.049Z,16.65
2023-05-02T21:29:01.240Z,16.54
2023-05-02T21:49:03.624Z,16.39
2023-05-02T21:59:04.778Z,15.79
2023-05-02T22:09:05.952Z,15.96
2023-05-02T22:19:07.100Z,16.10
2023-05-02T22:29:08.269Z,16.26
2023-05-02T22:39:09.457Z,15.96
2023-05-02T22:49:10.663Z,15.88
2023-05-02T22:59:11.891Z,15.79
2023-05-02T23:09:13.360Z,15.54
2023-05-02T23:19:14.246Z,15.22
2023-05-02T23:29:15.449Z,15.24
2023-05-02T23:39:16.650Z,15.03
2023-05-02T23:49:17.845Z,15.20
2023-05-02T23:59:19.063Z,14.93
